createdAt,value
2022-11-07T12:06:14.002Z,12.19
2022-11-07T12:09:27.804Z,12.23
2022-11-07T12:12:41.014Z,12.21
2022-11-07T12:15:59.671Z,12.31
2022-11-07T12:19:17.407Z,12.29
2022-11-07T12:22:32.816Z,12.26
2022-11-07T12:25:42.237Z,12.28
2022-11-07T12:28:52.069Z,12.25
2022-11-07T12:32:09.509Z,12.24
2022-11-07T12:35:29.797Z,12.24
2022-11-07T12:39:05.185Z,12.28
2022-11-07T12:42:14.878Z,12.28
2022-11-07T12:45:27.010Z,12.37
2022-11-07T12:49:21.103Z,12.43
2022-11-07T12:52:41.234Z,12.51
2022-11-07T12:55:49.114Z,12.52
2022-11-07T12:58:53.628Z,12.62
2022-11-07T13:02:03.030Z,12.60
2022-11-07T13:05:20.706Z,12.56
2022-11-07T13:08:34.765Z,12.59
2022-11-07T13:11:48.096Z,12.71
2022-11-07T13:14:51.575Z,12.75
2022-11-07T13:17:54.466Z,12.67
2022-11-07T13:21:01.803Z,12.63
2022-11-07T13:24:06.905Z,12.72
2022-11-07T13:27:23.372Z,12.69
2022-11-07T13:30:36.332Z,12.71
2022-11-07T13:33:39.178Z,12.72
2022-11-07T13:36:42.227Z,12.73
2022-11-07T13:39:47.632Z,12.67
2022-11-07T13:42:55.463Z,12.64
2022-11-07T13:46:00.949Z,12.71
2022-11-07T13:49:07.712Z,12.68
2022-11-07T13:52:17.745Z,12.77
2022-11-07T13:55:24.890Z,12.77
2022-11-07T13:58:32.472Z,12.96
2022-11-07T14:01:43.716Z,12.97
2022-11-07T14:05:14.906Z,12.94
2022-11-07T14:08:21.445Z,12.95
2022-11-07T14:11:24.482Z,12.91
2022-11-07T14:14:30.489Z,12.98
2022-11-07T14:17:37.345Z,12.97
2022-11-07T14:20:46.505Z,12.80
2022-11-07T14:23:49.968Z,12.82
2022-11-07T14:27:00.903Z,12.80
2022-11-07T14:30:05.878Z,12.92
2022-11-07T14:33:18.032Z,12.86
2022-11-07T14:36:21.719Z,12.77
2022-11-07T14:39:26.942Z,12.66
2022-11-07T14:42:30.268Z,12.45
2022-11-07T14:46:10.160Z,12.43
2022-11-07T14:48:57.744Z,12.53
2022-11-07T14:52:00.799Z,12.37
2022-11-07T14:55:08.396Z,12.37
2022-11-07T14:58:13.110Z,12.26
2022-11-07T15:01:27.789Z,12.31
2022-11-07T15:04:37.534Z,12.22
2022-11-07T15:07:48.997Z,12.13
2022-11-07T15:11:01.958Z,12.07
2022-11-07T15:14:07.136Z,12.04
2022-11-07T15:17:23.554Z,11.99
2022-11-07T15:20:35.764Z,12.02
2022-11-07T15:23:38.868Z,12.01
2022-11-07T15:26:41.996Z,11.89
2022-11-07T15:29:52.409Z,11.81
2022-11-07T15:32:56.726Z,11.89
2022-11-07T15:36:01.884Z,11.84
2022-11-07T15:39:04.963Z,11.84
2022-11-07T15:42:07.918Z,11.73
2022-11-07T15:45:11.645Z,11.44
2022-11-07T15:48:19.233Z,11.55
2022-11-07T15:51:22.350Z,11.54
2022-11-07T15:54:25.226Z,11.46
2022-11-07T15:57:28.109Z,11.47
2022-11-07T16:00:30.990Z,11.43
2022-11-07T16:03:35.287Z,11.44
2022-11-07T16:06:43.520Z,11.36
2022-11-07T16:09:49.457Z,11.36
2022-11-07T16:12:52.898Z,11.33
2022-11-07T16:16:00.518Z,11.26
2022-11-07T16:19:04.793Z,11.13
2022-11-07T16:22:07.672Z,11.16
2022-11-07T16:25:18.616Z,11.22
2022-11-07T16:28:27.688Z,11.23
2022-11-07T16:31:32.464Z,11.19
2022-11-07T16:34:36.676Z,11.17
2022-11-07T16:37:39.661Z,11.06
2022-11-07T16:40:42.953Z,11.04
2022-11-07T16:43:46.895Z,11.18
2022-11-07T16:46:49.873Z,11.08
2022-11-07T16:49:56.139Z,11.18
2022-11-07T16:52:59.344Z,11.18
2022-11-07T16:56:04.396Z,11.19
2022-11-07T16:59:08.332Z,11.28
2022-11-07T17:02:20.775Z,11.26
2022-11-07T17:05:25.972Z,11.22
2022-11-07T17:08:37.199Z,11.25
2022-11-07T17:11:40.112Z,11.21
2022-11-07T17:14:43.365Z,11.23
2022-11-07T17:17:47.127Z,11.20
2022-11-07T17:20:53.418Z,11.20
2022-11-07T17:23:58.463Z,11.19
2022-11-07T17:27:01.704Z,11.21
2022-11-07T17:30:08.535Z,11.17
2022-11-07T17:33:11.740Z,11.25
2022-11-07T17:36:36.342Z,11.22
2022-11-07T17:39:40.125Z,11.24
2022-11-07T17:42:42.964Z,11.27
2022-11-07T17:45:45.893Z,11.15
2022-11-07T17:48:49.557Z,11.19
2022-11-07T17:51:54.563Z,11.22
2022-11-07T17:54:57.551Z,11.25
2022-11-07T17:58:00.404Z,11.24
2022-11-07T18:01:04.982Z,11.27
2022-11-07T18:04:09.397Z,11.28
2022-11-07T18:07:13.906Z,11.32
2022-11-07T18:10:17.690Z,11.28
2022-11-07T18:13:23.598Z,11.31
2022-11-07T18:16:28.408Z,11.32
2022-11-07T18:19:31.366Z,11.32
2022-11-07T18:22:37.157Z,11.29
2022-11-07T18:25:40.186Z,11.27
2022-11-07T18:28:43.748Z,11.25
2022-11-07T18:31:49.883Z,11.31
2022-11-07T18:34:52.736Z,11.26
2022-11-07T18:37:57.066Z,11.27
2022-11-07T18:41:02.064Z,11.29
2022-11-07T18:44:05.512Z,11.32
2022-11-07T18:47:08.542Z,11.26
2022-11-07T18:50:12.509Z,11.21
2022-11-07T18:53:17.520Z,11.15
2022-11-07T18:56:21.762Z,11.12
2022-11-07T18:59:24.892Z,11.09
2022-11-07T19:02:28.634Z,11.12
2022-11-07T19:05:31.682Z,11.05
2022-11-07T19:08:38.704Z,10.98
2022-11-07T19:11:41.551Z,11.05
2022-11-07T19:14:44.699Z,11.04
2022-11-07T19:17:47.513Z,11.08
2022-11-07T19:20:54.141Z,11.02
2022-11-07T19:24:00.539Z,11.04
2022-11-07T19:27:03.702Z,11.03
2022-11-07T19:30:08.360Z,11.00
2022-11-07T19:33:12.459Z,10.90
2022-11-07T19:36:17.718Z,10.84
2022-11-07T19:39:22.308Z,10.78
2022-11-07T19:42:28.141Z,10.77
2022-11-07T19:45:31.621Z,10.76
2022-11-07T19:48:37.660Z,10.77
2022-11-07T19:51:41.070Z,10.76
2022-11-07T19:54:45.597Z,10.68
2022-11-07T19:57:50.763Z,10.65
2022-11-07T20:00:53.823Z,10.65
2022-11-07T20:03:57.583Z,10.62
2022-11-07T20:07:01.432Z,10.69
2022-11-07T20:10:08.718Z,10.62
2022-11-07T20:13:11.692Z,10.67
2022-11-07T20:16:15.209Z,10.54
2022-11-07T20:19:18.291Z,10.56
2022-11-07T20:22:24.717Z,10.64
2022-11-07T20:25:32.783Z,10.69
2022-11-07T20:28:36.155Z,10.69
2022-11-07T20:31:41.012Z,10.62
2022-11-07T20:34:43.847Z,10.58
2022-11-07T20:37:46.687Z,10.56
2022-11-07T20:40:51.104Z,10.30
2022-11-07T20:43:57.642Z,10.47
2022-11-07T20:47:00.472Z,10.51
2022-11-07T20:50:06.423Z,10.47
2022-11-07T20:53:13.327Z,10.42
2022-11-07T20:56:18.502Z,10.22
2022-11-07T20:59:24.408Z,10.24
2022-11-07T21:02:29.830Z,10.29
2022-11-07T21:05:36.417Z,10.37
2022-11-07T21:08:39.370Z,10.38
2022-11-07T21:11:43.753Z,10.35
2022-11-07T21:14:46.632Z,10.28
2022-11-07T21:17:49.838Z,9.96
2022-11-07T21:20:53.052Z,10.09
2022-11-07T21:23:57.858Z,10.10
2022-11-07T21:27:02.089Z,10.16
2022-11-07T21:30:08.067Z,10.08
2022-11-07T21:33:15.384Z,10.11
2022-11-07T21:36:20.877Z,10.09
2022-11-07T21:39:24.438Z,10.07
2022-11-07T21:42:33.657Z,10.04
2022-11-07T21:45:36.590Z,10.03
2022-11-07T21:48:40.479Z,9.90
2022-11-07T21:51:46.094Z,9.88
2022-11-07T21:54:49.848Z,9.73
2022-11-07T21:57:54.789Z,9.73
2022-11-07T22:01:03.056Z,9.77
2022-11-07T22:04:09.713Z,9.90
2022-11-07T22:07:13.369Z,9.90
2022-11-07T22:10:16.463Z,9.89
2022-11-07T22:13:27.155Z,9.90
2022-11-07T22:16:30.293Z,9.86
2022-11-07T22:19:33.501Z,9.72
2022-11-07T22:22:36.423Z,9.77
2022-11-07T22:25:41.740Z,9.97
2022-11-07T22:28:47.406Z,9.89
2022-11-07T22:31:50.592Z,9.92
2022-11-07T22:34:57.612Z,9.81
2022-11-07T22:38:00.667Z,9.82
2022-11-07T22:41:06.357Z,9.73
2022-11-07T22:44:10.867Z,9.86
2022-11-07T22:47:13.814Z,9.90
2022-11-07T22:50:16.869Z,9.76
2022-11-07T22:53:19.991Z,9.77
2022-11-07T22:56:23.222Z,9.73
2022-11-07T22:59:27.512Z,9.82
2022-11-07T23:02:30.468Z,9.86
2022-11-07T23:05:33.320Z,9.77
2022-11-07T23:08:36.986Z,9.77
2022-11-07T23:11:45.996Z,9.61
2022-11-07T23:14:51.593Z,9.67
2022-11-07T23:17:54.455Z,9.66
2022-11-07T23:21:12.403Z,9.63
2022-11-07T23:24:15.305Z,9.61
2022-11-07T23:27:19.099Z,9.57
2022-11-07T23:30:24.009Z,9.58
2022-11-07T23:33:26.871Z,9.55
2022-11-07T23:36:29.763Z,9.47
2022-11-07T23:39:32.747Z,9.42
2022-11-07T23:42:35.615Z,9.45
2022-11-07T23:45:56.542Z,9.48
2022-11-07T23:49:17.447Z,9.43
2022-11-07T23:52:20.348Z,9.36
2022-11-07T23:55:40.272Z,9.41
2022-11-07T23:59:00.526Z,9.37
